createdAt,value
2019-01-31T00:02:42.697Z,10.90
2019-01-31T00:05:30.074Z,10.10
2019-01-31T00:08:46.087Z,9.63
2019-01-31T00:11:38.415Z,8.57
2019-01-31T00:14:37.151Z,8.90
2019-01-31T00:17:28.741Z,7.90
2019-01-31T00:21:14.017Z,8.83
2019-01-31T00:24:11.551Z,8.53
2019-01-31T00:27:24.072Z,7.93
2019-01-31T00:30:47.911Z,10.17
2019-01-31T00:33:35.787Z,8.47
2019-01-31T00:36:56.607Z,7.83
2019-01-31T00:40:00.766Z,6.10
2019-01-31T00:43:14.415Z,9.13
2019-01-31T00:46:31.036Z,7.17
2019-01-31T00:49:46.431Z,7.63
2019-01-31T00:52:56.680Z,8.57
2019-01-31T00:55:49.171Z,6.33
2019-01-31T00:58:33.136Z,6.47
2019-01-31T01:01:35.627Z,6.33
2019-01-31T01:04:37.878Z,6.40
2019-01-31T01:07:58.762Z,6.37
2019-01-31T01:11:04.294Z,6.47
2019-01-31T01:14:08.167Z,6.27
2019-01-31T01:17:10.082Z,7.00
2019-01-31T01:20:33.364Z,6.10
2019-01-31T01:23:43.998Z,6.03
2019-01-31T01:26:28.782Z,7.17
2019-01-31T01:29:35.670Z,5.97
2019-01-31T01:32:36.367Z,6.97
2019-01-31T01:35:55.548Z,8.03
2019-01-31T01:39:19.267Z,8.33
2019-01-31T01:42:27.454Z,6.80
2019-01-31T01:45:16.954Z,7.80
2019-01-31T01:48:20.983Z,7.30
2019-01-31T01:51:12.256Z,6.43
2019-01-31T01:54:23.618Z,6.93
2019-01-31T01:57:18.519Z,7.63
2019-01-31T02:00:20.908Z,7.20
2019-01-31T02:03:33.008Z,7.73
2019-01-31T02:06:54.286Z,7.17
2019-01-31T02:09:44.745Z,6.63
2019-01-31T02:13:23.703Z,7.27
2019-01-31T02:16:35.243Z,7.10
2019-01-31T02:19:50.006Z,7.23
2019-01-31T02:22:43.808Z,7.27
2019-01-31T02:26:09.504Z,7.07
2019-01-31T02:29:21.246Z,6.87
2019-01-31T02:32:37.346Z,7.03
2019-01-31T02:35:29.377Z,6.37
2019-01-31T02:38:32.170Z,7.10
2019-01-31T02:41:23.850Z,6.73
2019-01-31T02:44:20.412Z,6.73
2019-01-31T02:47:14.643Z,6.50
2019-01-31T02:49:58.788Z,7.77
2019-01-31T02:53:10.169Z,7.47
2019-01-31T02:56:26.154Z,7.13
2019-01-31T02:59:27.068Z,7.13
2019-01-31T03:02:18.460Z,7.07
2019-01-31T03:05:21.029Z,6.33
2019-01-31T03:08:33.602Z,6.47
2019-01-31T03:11:32.692Z,6.43
2019-01-31T03:14:15.325Z,5.97
2019-01-31T03:17:36.247Z,5.50
2019-01-31T03:20:46.850Z,6.10
2019-01-31T03:23:59.630Z,6.80
2019-01-31T03:27:09.012Z,6.17
2019-01-31T03:30:18.678Z,6.40
2019-01-31T03:33:26.919Z,6.30
2019-01-31T03:36:51.142Z,6.27
2019-01-31T03:39:38.480Z,6.13
2019-01-31T03:42:31.414Z,6.10
2019-01-31T03:45:18.131Z,6.60
2019-01-31T03:48:31.572Z,6.40
2019-01-31T03:51:38.131Z,5.73
2019-01-31T03:54:39.162Z,6.10
2019-01-31T03:57:33.567Z,6.17
2019-01-31T04:00:53.122Z,6.53
2019-01-31T04:04:03.385Z,5.77
2019-01-31T04:06:37.090Z,5.80
2019-01-31T04:09:10.845Z,6.20
2019-01-31T04:11:43.723Z,6.17
2019-01-31T04:14:16.557Z,6.30
2019-01-31T04:16:49.529Z,6.37
2019-01-31T04:19:22.459Z,5.67
2019-01-31T04:21:55.215Z,6.23
2019-01-31T04:24:28.125Z,6.70
2019-01-31T04:27:00.918Z,7.03
2019-01-31T04:29:33.984Z,6.70
2019-01-31T04:32:06.747Z,6.40
2019-01-31T04:34:39.630Z,6.70
2019-01-31T04:37:12.751Z,6.47
2019-01-31T04:39:45.739Z,7.07
2019-01-31T04:42:18.620Z,7.40
2019-01-31T04:44:51.608Z,7.20
2019-01-31T04:47:24.511Z,6.83
2019-01-31T04:49:57.309Z,7.30
2019-01-31T04:52:30.128Z,7.10
2019-01-31T04:55:03.229Z,7.50
2019-01-31T04:57:36.030Z,7.53
2019-01-31T05:00:12.000Z,7.73
2019-01-31T05:02:44.911Z,7.97
2019-01-31T05:05:17.666Z,7.63
2019-01-31T05:07:50.441Z,8.40
2019-01-31T05:10:23.200Z,7.87
2019-01-31T05:12:56.089Z,9.33
2019-01-31T05:15:28.835Z,8.33
2019-01-31T05:18:01.955Z,8.50
2019-01-31T05:20:34.986Z,8.43
2019-01-31T05:23:07.863Z,8.70
2019-01-31T05:25:40.762Z,8.23
2019-01-31T05:28:13.822Z,7.93
2019-01-31T05:30:46.735Z,8.20
2019-01-31T05:33:19.662Z,8.53
2019-01-31T05:35:52.564Z,8.63
2019-01-31T05:38:25.421Z,8.90
2019-01-31T05:40:58.261Z,10.50
2019-01-31T05:43:31.280Z,8.50
2019-01-31T05:46:05.142Z,9.67
2019-01-31T05:48:38.083Z,9.67
2019-01-31T05:51:10.967Z,9.73
2019-01-31T05:53:43.814Z,9.17
2019-01-31T05:56:16.966Z,10.50
2019-01-31T05:58:49.820Z,9.77
2019-01-31T06:01:22.896Z,9.03
2019-01-31T06:03:55.885Z,10.13
2019-01-31T06:06:28.616Z,10.77
2019-01-31T06:09:01.706Z,9.93
2019-01-31T06:11:36.630Z,10.83
2019-01-31T06:14:09.860Z,11.93
2019-01-31T06:16:42.702Z,11.90
2019-01-31T06:19:15.799Z,12.30
2019-01-31T06:21:48.735Z,13.03
2019-01-31T06:24:21.475Z,13.43
2019-01-31T06:26:54.457Z,15.00
2019-01-31T06:29:27.223Z,15.90
2019-01-31T06:32:00.102Z,13.83
2019-01-31T06:34:32.965Z,14.57
2019-01-31T06:37:05.840Z,16.37
2019-01-31T06:39:38.832Z,14.93
2019-01-31T06:42:11.815Z,17.10
2019-01-31T06:44:44.802Z,16.57
2019-01-31T06:47:17.752Z,15.27
2019-01-31T06:49:50.578Z,15.37
2019-01-31T06:52:23.535Z,14.87
2019-01-31T06:54:56.692Z,15.33
2019-01-31T06:57:29.685Z,16.43
2019-01-31T07:00:02.804Z,17.50
2019-01-31T07:02:35.918Z,17.00
2019-01-31T07:05:08.928Z,16.57
2019-01-31T07:07:41.965Z,15.73
2019-01-31T07:10:20.315Z,16.67
2019-01-31T07:12:53.318Z,15.07
2019-01-31T07:15:26.112Z,16.20
2019-01-31T07:17:58.987Z,15.70
2019-01-31T07:20:32.150Z,16.83
2019-01-31T07:23:05.101Z,14.57
2019-01-31T07:25:37.896Z,15.80
2019-01-31T07:28:19.766Z,16.40
2019-01-31T07:30:53.597Z,16.13
2019-01-31T07:33:26.523Z,15.40
2019-01-31T07:35:59.237Z,15.30
2019-01-31T07:38:32.246Z,17.33
2019-01-31T07:41:05.106Z,16.07
2019-01-31T07:43:38.256Z,16.00
2019-01-31T07:46:11.131Z,14.90
2019-01-31T07:48:44.047Z,15.50
2019-01-31T07:51:16.886Z,14.00
2019-01-31T07:53:49.634Z,14.50
2019-01-31T07:56:22.527Z,14.67
2019-01-31T07:58:55.378Z,14.97
2019-01-31T08:01:28.337Z,13.10
2019-01-31T08:04:02.760Z,14.70
2019-01-31T08:06:35.969Z,13.13
2019-01-31T08:09:09.140Z,13.17
2019-01-31T08:11:52.135Z,14.20
2019-01-31T08:14:16.922Z,13.00
2019-01-31T08:16:50.151Z,12.07
2019-01-31T08:19:23.275Z,12.70
2019-01-31T08:21:56.351Z,11.70
2019-01-31T08:24:30.203Z,12.63
2019-01-31T08:27:02.973Z,12.00
2019-01-31T08:29:35.764Z,13.93
2019-01-31T08:32:08.519Z,12.00
2019-01-31T08:34:41.409Z,11.23
2019-01-31T08:37:14.403Z,11.53
2019-01-31T08:39:47.112Z,9.27
2019-01-31T08:42:19.913Z,9.83
2019-01-31T08:44:52.935Z,10.50
2019-01-31T08:47:25.998Z,10.03
2019-01-31T08:49:58.998Z,10.20
2019-01-31T08:52:32.003Z,8.80
2019-01-31T08:55:05.299Z,9.47
2019-01-31T08:57:38.826Z,8.83
2019-01-31T09:00:17.740Z,8.07
2019-01-31T09:02:50.844Z,8.60
2019-01-31T09:05:24.137Z,9.67
2019-01-31T09:07:57.367Z,9.37
2019-01-31T09:10:35.427Z,9.07
2019-01-31T09:13:10.264Z,9.23
2019-01-31T09:15:43.049Z,8.37
2019-01-31T09:18:15.868Z,8.67
2019-01-31T09:21:13.310Z,8.50
2019-01-31T09:24:31.289Z,8.50
2019-01-31T09:27:17.993Z,7.97
2019-01-31T09:30:19.555Z,9.53
2019-01-31T09:33:27.255Z,8.77
2019-01-31T09:36:28.718Z,9.03
2019-01-31T09:39:48.578Z,10.53
2019-01-31T09:43:09.075Z,11.00
2019-01-31T09:46:30.795Z,11.13
2019-01-31T09:49:33.441Z,10.53
2019-01-31T09:52:22.599Z,13.10
2019-01-31T09:55:32.088Z,12.17
2019-01-31T09:58:44.869Z,10.70
2019-01-31T10:01:37.499Z,12.50
2019-01-31T10:04:34.819Z,11.70
2019-01-31T10:07:58.808Z,12.53
2019-01-31T10:11:04.810Z,10.00
2019-01-31T10:14:10.542Z,10.70
2019-01-31T10:17:08.554Z,11.50
2019-01-31T10:20:41.394Z,10.83
2019-01-31T10:23:39.956Z,10.67
2019-01-31T10:26:52.344Z,11.20
2019-01-31T10:30:40.836Z,11.57
2019-01-31T10:33:53.051Z,12.30
2019-01-31T10:36:50.752Z,13.10
2019-01-31T10:40:01.697Z,13.10
2019-01-31T10:43:23.197Z,13.17
2019-01-31T10:46:25.489Z,12.20
2019-01-31T10:49:59.076Z,13.43
2019-01-31T10:52:58.626Z,12.13
2019-01-31T10:56:02.456Z,13.33
2019-01-31T10:59:09.265Z,13.57
2019-01-31T11:02:15.876Z,14.33
2019-01-31T11:05:25.494Z,13.40
2019-01-31T11:08:36.095Z,14.00
2019-01-31T11:11:41.312Z,13.57
2019-01-31T11:14:54.932Z,13.13
2019-01-31T11:18:04.712Z,12.80
2019-01-31T11:21:18.576Z,15.33
2019-01-31T11:24:34.054Z,14.60
2019-01-31T11:27:35.636Z,15.50
2019-01-31T11:30:45.811Z,14.63
2019-01-31T11:33:39.570Z,14.37
2019-01-31T11:37:08.442Z,14.40
2019-01-31T11:40:41.497Z,12.73
2019-01-31T11:43:43.648Z,14.07
2019-01-31T11:46:44.277Z,14.43
2019-01-31T11:49:41.826Z,13.87
2019-01-31T11:53:12.030Z,15.20
2019-01-31T11:56:20.605Z,15.27
2019-01-31T11:59:13.027Z,14.30
2019-01-31T12:01:46.072Z,15.93
2019-01-31T12:04:19.594Z,15.40
2019-01-31T12:06:52.410Z,16.77
2019-01-31T12:09:25.777Z,15.47
2019-01-31T12:12:01.926Z,14.60
2019-01-31T12:14:34.877Z,15.70
2019-01-31T12:17:07.711Z,15.73
2019-01-31T12:19:40.580Z,14.17
2019-01-31T12:22:13.680Z,15.13
2019-01-31T12:24:46.447Z,16.43
2019-01-31T12:27:19.206Z,14.53
2019-01-31T12:29:52.038Z,17.07
2019-01-31T12:32:25.050Z,15.47
2019-01-31T12:34:57.971Z,15.37
2019-01-31T12:37:30.851Z,14.33
2019-01-31T12:40:04.907Z,16.57
2019-01-31T12:42:37.871Z,14.47
2019-01-31T12:45:12.846Z,15.77
2019-01-31T12:47:46.011Z,16.90
2019-01-31T12:50:21.575Z,16.00
2019-01-31T12:52:54.558Z,18.40
2019-01-31T12:55:27.420Z,16.97
2019-01-31T12:58:00.532Z,19.30
2019-01-31T13:00:33.392Z,20.63
2019-01-31T13:03:06.532Z,19.07
2019-01-31T13:05:39.578Z,20.70
2019-01-31T13:08:13.407Z,17.83
2019-01-31T13:10:47.224Z,17.37
2019-01-31T13:13:20.267Z,18.00
2019-01-31T13:15:53.194Z,18.60
2019-01-31T13:18:26.113Z,19.80
2019-01-31T13:20:59.029Z,15.13
2019-01-31T13:23:31.807Z,15.07
2019-01-31T13:26:04.924Z,17.27
2019-01-31T13:28:37.938Z,18.80
2019-01-31T13:31:10.819Z,19.07
2019-01-31T13:33:46.538Z,17.30
2019-01-31T13:36:18.912Z,16.97
2019-01-31T13:38:51.761Z,16.43
2019-01-31T13:41:24.507Z,16.77
2019-01-31T13:43:58.025Z,14.87
2019-01-31T13:46:31.073Z,14.93
2019-01-31T13:49:04.146Z,16.43
2019-01-31T13:51:37.168Z,17.90
2019-01-31T13:54:10.155Z,17.67
2019-01-31T13:56:45.554Z,19.37
2019-01-31T13:59:18.506Z,16.30
2019-01-31T14:01:51.377Z,14.10
2019-01-31T14:04:24.440Z,19.40
2019-01-31T14:06:57.428Z,17.60
2019-01-31T14:09:30.477Z,14.07
2019-01-31T14:12:03.383Z,17.97
2019-01-31T14:14:36.459Z,17.57
2019-01-31T14:17:09.462Z,18.60
2019-01-31T14:19:42.260Z,15.93
2019-01-31T14:22:15.311Z,16.80
2019-01-31T14:24:48.325Z,16.47
2019-01-31T14:27:21.124Z,18.60
2019-01-31T14:29:54.249Z,15.87
2019-01-31T14:32:30.205Z,14.50
2019-01-31T14:35:09.348Z,15.00
2019-01-31T14:37:46.115Z,17.90
2019-01-31T14:40:20.755Z,17.90
2019-01-31T14:42:53.810Z,17.83
2019-01-31T14:45:29.665Z,17.10
2019-01-31T14:48:01.843Z,15.47
2019-01-31T14:50:34.780Z,16.83
2019-01-31T14:53:08.022Z,18.90
2019-01-31T14:55:41.065Z,19.57
2019-01-31T14:58:13.859Z,18.63
2019-01-31T15:00:46.734Z,19.37
2019-01-31T15:03:19.639Z,17.63
2019-01-31T15:05:52.570Z,19.93
2019-01-31T15:08:25.653Z,17.77
2019-01-31T15:10:58.564Z,19.93
2019-01-31T15:13:31.580Z,20.43
2019-01-31T15:16:04.453Z,18.50
2019-01-31T15:18:37.579Z,21.63
2019-01-31T15:21:10.541Z,20.17
2019-01-31T15:23:43.665Z,20.97
2019-01-31T15:26:16.717Z,21.30
2019-01-31T15:28:49.699Z,21.60
2019-01-31T15:31:22.692Z,22.53
2019-01-31T15:33:55.700Z,22.67
2019-01-31T15:36:28.690Z,20.87
2019-01-31T15:39:01.685Z,22.03
2019-01-31T15:41:36.599Z,20.73
2019-01-31T15:44:10.594Z,20.40
2019-01-31T15:46:43.745Z,20.33
2019-01-31T15:49:16.615Z,20.90
2019-01-31T15:51:49.406Z,21.67
2019-01-31T15:54:22.360Z,21.93
2019-01-31T15:56:56.615Z,23.27
2019-01-31T15:59:29.693Z,21.77
2019-01-31T16:02:02.594Z,21.67
2019-01-31T16:04:35.603Z,22.60
2019-01-31T16:07:08.444Z,22.60
2019-01-31T16:09:41.474Z,23.87
2019-01-31T16:12:14.262Z,23.03
2019-01-31T16:14:54.545Z,24.50
2019-01-31T16:17:21.566Z,24.17
2019-01-31T16:19:54.222Z,26.93
2019-01-31T16:22:26.835Z,25.97
2019-01-31T16:24:59.859Z,25.83
2019-01-31T16:27:32.867Z,26.30
2019-01-31T16:30:07.693Z,28.77
2019-01-31T16:32:40.812Z,30.73
2019-01-31T16:35:14.225Z,32.33
2019-01-31T16:37:47.287Z,31.50
2019-01-31T16:40:20.375Z,29.53
2019-01-31T16:42:53.297Z,29.13
2019-01-31T16:45:26.534Z,29.53
2019-01-31T16:47:59.435Z,27.50
2019-01-31T16:50:32.561Z,27.97
2019-01-31T16:53:07.024Z,27.10
2019-01-31T16:55:39.861Z,25.77
2019-01-31T16:58:12.661Z,24.87
2019-01-31T17:00:45.582Z,24.80
2019-01-31T17:03:18.512Z,25.57
2019-01-31T17:05:51.564Z,24.70
2019-01-31T17:08:24.539Z,23.07
2019-01-31T17:10:57.526Z,31.20
2019-01-31T17:13:30.610Z,21.57
2019-01-31T17:16:03.468Z,21.13
2019-01-31T17:18:36.384Z,19.67
2019-01-31T17:21:09.327Z,19.77
2019-01-31T17:23:42.166Z,18.43
2019-01-31T17:26:15.181Z,19.40
2019-01-31T17:28:47.990Z,19.53
2019-01-31T17:31:21.020Z,18.53
2019-01-31T17:33:53.888Z,18.60
2019-01-31T17:36:26.981Z,19.07
2019-01-31T17:39:00.402Z,17.87
2019-01-31T17:41:33.345Z,18.70
2019-01-31T17:44:06.358Z,17.83
2019-01-31T17:46:39.265Z,17.47
2019-01-31T17:49:12.336Z,16.87
2019-01-31T17:51:45.082Z,16.73
2019-01-31T17:54:18.134Z,19.57
2019-01-31T17:56:51.142Z,20.10
2019-01-31T17:59:23.962Z,21.53
2019-01-31T18:01:56.887Z,20.13
2019-01-31T18:04:29.750Z,20.27
2019-01-31T18:07:02.770Z,19.50
2019-01-31T18:09:35.959Z,18.70
2019-01-31T18:12:08.783Z,22.43
2019-01-31T18:14:41.653Z,23.10
2019-01-31T18:17:14.462Z,20.80
2019-01-31T18:19:47.448Z,21.43
2019-01-31T18:22:20.500Z,21.53
2019-01-31T18:24:53.402Z,20.40
2019-01-31T18:27:26.426Z,21.37
2019-01-31T18:29:59.682Z,20.87
2019-01-31T18:32:32.772Z,20.70
2019-01-31T18:35:07.358Z,20.57
2019-01-31T18:37:40.262Z,18.83
2019-01-31T18:40:18.576Z,19.13
2019-01-31T18:42:52.552Z,19.93
2019-01-31T18:45:27.174Z,18.43
2019-01-31T18:48:00.963Z,18.80
2019-01-31T18:50:36.331Z,15.77
2019-01-31T18:53:09.382Z,15.63
2019-01-31T18:55:42.509Z,16.00
2019-01-31T18:58:16.803Z,16.37
2019-01-31T19:00:50.319Z,18.87
2019-01-31T19:03:23.442Z,17.80
2019-01-31T19:05:56.478Z,18.57
2019-01-31T19:08:29.578Z,18.93
2019-01-31T19:11:02.458Z,17.43
2019-01-31T19:13:35.538Z,41.27
2019-01-31T19:16:08.624Z,18.10
2019-01-31T19:18:41.667Z,24.37
2019-01-31T19:21:14.584Z,22.17
2019-01-31T19:23:48.491Z,19.80
2019-01-31T19:26:21.593Z,17.53
2019-01-31T19:28:54.743Z,18.57
2019-01-31T19:31:27.743Z,19.70
2019-01-31T19:34:00.681Z,21.43
2019-01-31T19:36:33.633Z,21.73
2019-01-31T19:39:09.447Z,19.67
2019-01-31T19:41:42.626Z,19.00
2019-01-31T19:44:15.589Z,18.47
2019-01-31T19:46:49.045Z,18.07
2019-01-31T19:49:22.158Z,18.10
2019-01-31T19:51:55.179Z,18.97
2019-01-31T19:54:29.897Z,19.07
2019-01-31T19:57:02.979Z,16.60
2019-01-31T19:59:35.953Z,16.63
2019-01-31T20:02:08.773Z,17.33
2019-01-31T20:04:41.842Z,17.93
2019-01-31T20:07:15.628Z,16.40
2019-01-31T20:09:48.598Z,16.77
2019-01-31T20:12:22.610Z,17.00
2019-01-31T20:14:55.477Z,16.60
2019-01-31T20:17:28.459Z,20.00
2019-01-31T20:20:01.463Z,20.97
2019-01-31T20:22:34.713Z,18.53
2019-01-31T20:25:08.556Z,19.30
2019-01-31T20:27:43.250Z,16.53
2019-01-31T20:30:25.515Z,19.83
2019-01-31T20:32:59.519Z,17.70
2019-01-31T20:35:32.692Z,18.43
2019-01-31T20:38:06.900Z,18.70
2019-01-31T20:40:41.440Z,18.03
2019-01-31T20:43:14.259Z,16.87
2019-01-31T20:45:47.350Z,17.63
2019-01-31T20:48:20.325Z,18.67
2019-01-31T20:50:53.366Z,18.93
2019-01-31T20:53:26.681Z,15.30
2019-01-31T20:55:59.690Z,17.33
2019-01-31T20:58:32.754Z,19.97
2019-01-31T21:01:06.076Z,19.47
2019-01-31T21:03:39.514Z,16.33
2019-01-31T21:06:12.394Z,17.90
2019-01-31T21:08:45.290Z,15.33
2019-01-31T21:11:18.272Z,17.50
2019-01-31T21:13:51.349Z,17.87
2019-01-31T21:16:24.334Z,16.27
2019-01-31T21:18:57.138Z,15.67
2019-01-31T21:21:30.235Z,15.77
2019-01-31T21:24:03.411Z,15.30
2019-01-31T21:26:36.384Z,14.70
2019-01-31T21:29:09.511Z,15.43
2019-01-31T21:31:42.422Z,16.97
2019-01-31T21:34:15.564Z,16.80
2019-01-31T21:36:48.569Z,14.20
2019-01-31T21:39:21.785Z,15.60
2019-01-31T21:41:54.585Z,14.30
2019-01-31T21:44:27.611Z,14.93
2019-01-31T21:47:03.251Z,13.93
2019-01-31T21:49:35.416Z,15.33
2019-01-31T21:52:08.395Z,13.50
2019-01-31T21:54:41.186Z,14.10
2019-01-31T21:57:14.116Z,14.40
2019-01-31T21:59:47.221Z,13.37
2019-01-31T22:02:20.026Z,13.57
2019-01-31T22:04:52.984Z,12.47
2019-01-31T22:07:26.021Z,12.77
2019-01-31T22:09:59.155Z,14.83
2019-01-31T22:12:31.955Z,12.70
2019-01-31T22:15:09.629Z,11.53
2019-01-31T22:17:42.814Z,13.00
2019-01-31T22:20:15.830Z,11.63
2019-01-31T22:22:48.681Z,10.17
2019-01-31T22:25:22.094Z,11.57
2019-01-31T22:27:54.979Z,12.27
2019-01-31T22:30:30.091Z,11.27
2019-01-31T22:33:03.382Z,11.40
2019-01-31T22:35:36.361Z,11.40
2019-01-31T22:38:09.209Z,12.30
2019-01-31T22:40:42.296Z,11.07
2019-01-31T22:43:15.057Z,10.47
2019-01-31T22:45:47.982Z,11.07
2019-01-31T22:48:21.149Z,10.53
2019-01-31T22:50:54.046Z,11.00
2019-01-31T22:53:26.955Z,11.30
2019-01-31T22:55:59.922Z,9.80
2019-01-31T22:58:32.831Z,10.07
2019-01-31T23:01:57.971Z,10.60
2019-01-31T23:04:30.887Z,9.33
2019-01-31T23:07:03.915Z,10.13
2019-01-31T23:09:36.842Z,9.63
2019-01-31T23:12:09.855Z,9.97
2019-01-31T23:14:43.060Z,8.50
2019-01-31T23:17:16.140Z,9.57
2019-01-31T23:19:48.877Z,10.97
2019-01-31T23:22:21.682Z,9.13
2019-01-31T23:24:54.447Z,10.00
2019-01-31T23:27:27.366Z,8.93
2019-01-31T23:30:00.381Z,10.63
2019-01-31T23:32:33.601Z,9.70
2019-01-31T23:35:06.960Z,8.50
2019-01-31T23:37:39.933Z,8.43
2019-01-31T23:40:13.082Z,8.23
2019-01-31T23:42:46.073Z,8.83
2019-01-31T23:45:19.118Z,8.67
2019-01-31T23:47:52.085Z,8.40
2019-01-31T23:50:24.817Z,8.80
2019-01-31T23:52:57.647Z,8.63
2019-01-31T23:55:30.725Z,8.07
2019-01-31T23:58:03.881Z,8.17
